Terminal Aerodrome Forecast
Issued by NWS Shreveport, LA

Home | Current Version | Previous Version | Text Only | Print | Product List | Glossary On
Versions: 1 2 3 4 5 6 7 8 9 10 11 12 13 14 15
588
FTUS44 KSHV 250528
TAFGGG
TAF
KGGG 250528Z 2506/2606 15006KT P6SM SKC
     FM251400 15004KT P6SM SCT007 BKN012
     FM251600 15007KT P6SM SCT060 SCT250
     FM260000 13005KT P6SM VCSH BKN050=

USA.gov is the U.S. government's official web portal to all federal, state and local government web resources and services.